Terminal Aerodrome Forecast
Issued by NWS Milwaukee/Sullivan, WI

Home | Current Version | Previous Version | Text Only | Print | Product List | Glossary On
Versions: 1 2 3 4 5 6 7 8 9 10 11 12 13 14 15 16 17 18 19 20 21 22 23 24
000
FTUS43 KMKX 300606 AAA
TAFMSN
TAF AMD
KMSN 300606Z 3006/0106 01008KT P6SM SCT025 BKN035
      TEMPO 3007/3008 BKN025
     FM300800 02010KT P6SM BKN025
     FM301200 03011KT P6SM SCT010 OVC020
     FM301500 03012KT P6SM SCT015 OVC025
     FM301700 04012KT P6SM VCSH SCT015 OVC025
     FM302300 03010KT P6SM VCSH SCT010 OVC015
     FM010100 04007KT P6SM SCT008 OVC015=

USA.gov is the U.S. government's official web portal to all federal, state and local government web resources and services.